createdAt,value
2023-05-20T00:01:53.583Z,76.20
2023-05-20T00:04:21.107Z,66.90
2023-05-20T00:06:48.440Z,86.70
2023-05-20T00:09:17.425Z,94.30
2023-05-20T00:11:46.178Z,93.10
2023-05-20T00:14:13.519Z,99.90
2023-05-20T00:16:41.226Z,94.20
2023-05-20T00:19:08.794Z,97.60
2023-05-20T00:21:36.176Z,95.80
2023-05-20T00:24:03.488Z,98.60
2023-05-20T00:26:30.985Z,98.80
2023-05-20T00:28:58.211Z,97.80
2023-05-20T00:31:25.651Z,98.60
2023-05-20T00:33:52.964Z,99.20
2023-05-20T00:36:20.222Z,99.90
2023-05-20T00:38:47.662Z,99.90
2023-05-20T00:41:15.023Z,99.90
2023-05-20T00:43:42.322Z,99.90
2023-05-20T00:46:10.784Z,99.90
2023-05-20T00:48:43.542Z,99.90
2023-05-20T00:51:13.109Z,99.90
2023-05-20T00:53:41.461Z,99.90
2023-05-20T00:56:09.148Z,99.90
2023-05-20T00:58:38.025Z,99.90
2023-05-20T01:01:06.574Z,99.90
2023-05-20T01:03:34.283Z,99.90
2023-05-20T01:06:02.258Z,99.90
2023-05-20T01:08:29.843Z,99.90
2023-05-20T01:11:26.242Z,99.90
2023-05-20T01:14:02.196Z,99.90
2023-05-20T01:16:31.889Z,99.90
2023-05-20T01:19:00.010Z,99.90
2023-05-20T01:21:30.717Z,99.90
2023-05-20T01:23:58.006Z,99.90
2023-05-20T01:26:27.279Z,99.90
2023-05-20T01:28:54.785Z,99.90
2023-05-20T01:31:25.932Z,99.90
2023-05-20T01:33:58.532Z,99.90
2023-05-20T01:36:27.676Z,99.90
2023-05-20T01:38:56.390Z,99.90
2023-05-20T01:41:27.085Z,99.90
2023-05-20T01:43:55.699Z,99.90
2023-05-20T01:46:23.250Z,99.90
2023-05-20T01:48:50.748Z,99.90
2023-05-20T01:51:18.098Z,99.90
2023-05-20T01:53:45.424Z,99.90
2023-05-20T01:56:12.733Z,99.90
2023-05-20T01:58:39.991Z,99.90
2023-05-20T02:01:25.749Z,99.90
2023-05-20T02:04:11.965Z,99.90
2023-05-20T02:06:39.283Z,99.90
2023-05-20T02:09:06.527Z,99.90
2023-05-20T02:11:33.806Z,99.90
2023-05-20T02:14:01.115Z,99.90
2023-05-20T02:16:28.523Z,99.90
2023-05-20T02:18:55.883Z,99.90
2023-05-20T02:21:23.249Z,99.90
2023-05-20T02:23:50.589Z,99.90
2023-05-20T02:26:18.004Z,99.90
2023-05-20T02:28:46.949Z,99.90
2023-05-20T02:31:14.282Z,99.90
2023-05-20T02:33:41.551Z,99.90
2023-05-20T02:36:08.969Z,99.90
2023-05-20T02:38:36.241Z,99.90
2023-05-20T02:41:04.695Z,99.90
2023-05-20T02:43:33.252Z,99.90
2023-05-20T02:46:00.828Z,99.90
2023-05-20T02:48:28.297Z,99.90
2023-05-20T02:50:55.858Z,99.90
2023-05-20T02:53:23.087Z,99.90
2023-05-20T02:55:50.623Z,99.90
2023-05-20T02:58:17.867Z,99.90
2023-05-20T03:00:45.109Z,99.90
2023-05-20T03:03:13.710Z,99.90
2023-05-20T03:05:42.627Z,99.90
2023-05-20T03:08:10.708Z,99.90
2023-05-20T03:10:41.024Z,99.90
2023-05-20T03:13:10.070Z,99.90
2023-05-20T03:15:41.334Z,99.90
2023-05-20T03:18:08.881Z,99.90
2023-05-20T03:20:38.906Z,99.90
2023-05-20T03:23:06.720Z,99.90
2023-05-20T03:25:34.524Z,99.90
2023-05-20T03:28:02.115Z,99.90
2023-05-20T03:30:29.664Z,99.90
2023-05-20T03:32:57.957Z,99.90
2023-05-20T03:35:26.354Z,99.90
2023-05-20T03:37:53.732Z,99.90
2023-05-20T03:40:21.530Z,99.90
2023-05-20T03:42:50.053Z,99.90
2023-05-20T03:45:17.308Z,99.90
2023-05-20T03:47:44.633Z,99.90
2023-05-20T03:50:12.061Z,99.90
2023-05-20T03:52:41.065Z,99.90
2023-05-20T03:55:08.985Z,99.90
2023-05-20T03:57:36.760Z,99.90
2023-05-20T04:00:10.706Z,99.90
2023-05-20T04:02:38.913Z,99.90
2023-05-20T04:05:08.998Z,99.90
2023-05-20T04:07:36.671Z,99.90
2023-05-20T04:10:05.493Z,99.90
2023-05-20T04:12:32.876Z,99.90
2023-05-20T04:15:02.490Z,99.90
2023-05-20T04:17:30.899Z,99.90
2023-05-20T04:20:00.034Z,99.90
2023-05-20T04:22:27.820Z,99.90
2023-05-20T04:24:56.597Z,99.90
2023-05-20T04:27:23.908Z,99.90
2023-05-20T04:29:52.512Z,99.90
2023-05-20T04:32:20.098Z,99.90
2023-05-20T04:34:48.213Z,99.90
2023-05-20T04:37:16.234Z,99.90
2023-05-20T04:39:43.964Z,99.90
2023-05-20T04:42:11.229Z,99.90
2023-05-20T04:44:39.190Z,99.90
2023-05-20T04:47:09.703Z,99.90
2023-05-20T04:49:37.075Z,99.90
2023-05-20T04:52:04.886Z,99.90
2023-05-20T04:54:32.981Z,99.90
2023-05-20T04:57:00.345Z,99.90
2023-05-20T04:59:27.638Z,99.90
2023-05-20T05:01:54.996Z,99.90
2023-05-20T05:04:23.296Z,99.90
2023-05-20T05:06:50.713Z,99.90
2023-05-20T05:09:18.388Z,99.90
2023-05-20T05:11:45.668Z,99.90
2023-05-20T05:14:12.910Z,99.90
2023-05-20T05:16:40.170Z,99.90
2023-05-20T05:19:08.915Z,99.90
2023-05-20T05:21:36.312Z,99.90
2023-05-20T05:24:03.686Z,99.90
2023-05-20T05:26:31.112Z,99.90
2023-05-20T05:28:58.571Z,99.90
2023-05-20T05:31:25.907Z,99.90
2023-05-20T05:33:53.220Z,99.90
2023-05-20T05:36:20.487Z,99.90
2023-05-20T05:38:47.915Z,99.90
2023-05-20T05:41:15.239Z,99.90
2023-05-20T05:43:44.512Z,99.90
2023-05-20T05:46:11.944Z,99.90
2023-05-20T05:48:40.120Z,99.90
2023-05-20T05:51:07.400Z,99.90
2023-05-20T05:53:34.793Z,99.90
2023-05-20T05:56:02.594Z,99.90
2023-05-20T05:58:29.918Z,99.90
2023-05-20T06:00:57.690Z,99.90
2023-05-20T06:03:25.296Z,99.90
2023-05-20T06:05:52.996Z,99.90
2023-05-20T06:08:20.289Z,99.90
2023-05-20T06:10:51.610Z,99.90
2023-05-20T06:13:19.018Z,99.90
2023-05-20T06:15:46.590Z,99.90
2023-05-20T06:18:13.969Z,99.90
2023-05-20T06:20:41.429Z,99.90
2023-05-20T06:23:08.744Z,98.30
2023-05-20T06:25:36.161Z,98.10
2023-05-20T06:28:03.627Z,99.90
2023-05-20T06:30:30.932Z,99.90
2023-05-20T06:32:58.370Z,99.90
2023-05-20T06:35:26.282Z,99.90
2023-05-20T06:37:53.751Z,99.90
2023-05-20T06:40:22.086Z,89.90
2023-05-20T06:42:49.381Z,67.80
2023-05-20T06:45:16.754Z,66.60
2023-05-20T06:47:44.518Z,54.80
2023-05-20T06:50:12.182Z,54.70
2023-05-20T06:52:39.452Z,57.30
2023-05-20T06:55:07.070Z,55.90
2023-05-20T06:57:34.360Z,52.70
2023-05-20T07:00:01.806Z,50.80
2023-05-20T07:02:29.075Z,48.70
2023-05-20T07:04:56.358Z,53.40
2023-05-20T07:07:23.578Z,53.70
2023-05-20T07:09:50.879Z,55.00
2023-05-20T07:12:18.117Z,53.00
2023-05-20T07:14:45.424Z,53.60
2023-05-20T07:17:13.433Z,48.00
2023-05-20T07:19:40.752Z,51.00
2023-05-20T07:22:08.098Z,52.60
2023-05-20T07:24:36.503Z,49.10
2023-05-20T07:27:04.144Z,46.60
2023-05-20T07:29:31.849Z,48.80
2023-05-20T07:31:59.233Z,42.60
2023-05-20T07:34:26.702Z,43.90
2023-05-20T07:36:54.089Z,43.10
2023-05-20T07:39:21.425Z,41.80
2023-05-20T07:41:48.725Z,41.40
2023-05-20T07:44:16.153Z,41.00
2023-05-20T07:46:43.552Z,37.60
2023-05-20T07:49:11.379Z,32.40
2023-05-20T07:51:38.683Z,34.40
2023-05-20T07:54:06.477Z,30.00
2023-05-20T07:56:34.133Z,31.30
2023-05-20T07:59:03.330Z,30.00
2023-05-20T08:01:30.995Z,29.60
2023-05-20T08:03:58.670Z,30.60
2023-05-20T08:06:28.738Z,28.80
2023-05-20T08:08:57.086Z,28.90
2023-05-20T08:11:24.529Z,27.30
2023-05-20T08:13:51.870Z,29.20
2023-05-20T08:16:21.252Z,26.80
2023-05-20T08:18:48.571Z,25.50
2023-05-20T08:21:16.028Z,27.40
2023-05-20T08:23:43.327Z,28.90
2023-05-20T08:26:10.848Z,24.70
2023-05-20T08:28:38.339Z,21.60
2023-05-20T08:31:06.108Z,22.90
2023-05-20T08:33:33.469Z,22.00
2023-05-20T08:36:00.955Z,23.10
2023-05-20T08:38:28.311Z,23.20
2023-05-20T08:40:57.367Z,26.50
2023-05-20T08:43:25.911Z,27.30
2023-05-20T08:45:53.430Z,25.90
2023-05-20T08:48:23.988Z,25.60
2023-05-20T08:50:52.493Z,27.30
2023-05-20T08:53:22.120Z,26.30
2023-05-20T08:56:01.469Z,26.40
2023-05-20T08:58:35.471Z,28.20
2023-05-20T09:01:03.154Z,29.30
2023-05-20T09:03:30.668Z,30.50
2023-05-20T09:06:08.713Z,29.50
2023-05-20T09:08:36.530Z,26.90
2023-05-20T09:11:04.005Z,24.30
2023-05-20T09:13:34.849Z,24.70
2023-05-20T09:16:03.397Z,23.70
2023-05-20T09:18:31.514Z,25.60
2023-05-20T09:21:04.625Z,28.10
2023-05-20T09:23:32.057Z,29.90
2023-05-20T09:26:02.590Z,27.80
2023-05-20T09:28:29.831Z,29.10
2023-05-20T09:30:59.891Z,28.10
2023-05-20T09:33:32.150Z,25.40
2023-05-20T09:36:08.245Z,26.90
2023-05-20T09:38:39.819Z,29.80
2023-05-20T09:41:12.519Z,29.70
2023-05-20T09:43:43.088Z,28.60
2023-05-20T09:46:11.431Z,30.60
2023-05-20T09:48:39.983Z,30.00
2023-05-20T09:51:08.167Z,28.80
2023-05-20T09:53:36.705Z,25.10
2023-05-20T09:56:04.479Z,25.80
2023-05-20T09:58:35.835Z,25.60
2023-05-20T10:01:03.345Z,24.10
2023-05-20T10:03:30.797Z,24.20
2023-05-20T10:06:10.206Z,22.80
2023-05-20T10:09:00.794Z,21.50
2023-05-20T10:12:19.354Z,23.00
2023-05-20T10:14:53.188Z,22.70
2023-05-20T10:17:24.507Z,25.20
2023-05-20T10:19:59.315Z,27.20
2023-05-20T10:22:29.257Z,28.60
2023-05-20T10:25:01.273Z,26.60
2023-05-20T10:27:28.568Z,26.50
2023-05-20T10:30:00.186Z,27.80
2023-05-20T10:32:29.383Z,28.70
2023-05-20T10:35:10.818Z,29.70
2023-05-20T10:37:43.551Z,29.30
2023-05-20T10:40:13.190Z,26.40
2023-05-20T10:42:41.429Z,25.10
2023-05-20T10:45:10.210Z,25.80
2023-05-20T10:47:53.707Z,25.60
2023-05-20T10:50:41.444Z,26.40
2023-05-20T10:53:29.414Z,27.30
2023-05-20T10:56:00.606Z,25.40
2023-05-20T10:58:27.950Z,25.00
2023-05-20T11:00:56.355Z,23.60
2023-05-20T11:03:24.468Z,24.90
2023-05-20T11:05:52.446Z,25.80
2023-05-20T11:08:27.635Z,26.70
2023-05-20T11:10:59.643Z,29.70
2023-05-20T11:13:27.249Z,30.70
2023-05-20T11:15:55.623Z,27.80
2023-05-20T11:18:22.921Z,25.80
2023-05-20T11:20:51.212Z,25.10
2023-05-20T11:23:19.297Z,22.30
2023-05-20T11:25:46.845Z,23.40
2023-05-20T11:28:14.759Z,21.90
2023-05-20T11:30:45.651Z,22.60
2023-05-20T11:33:14.304Z,23.80
2023-05-20T11:35:46.755Z,24.40
2023-05-20T11:38:14.519Z,23.10
2023-05-20T11:40:51.290Z,24.30
2023-05-20T11:43:19.890Z,25.00
2023-05-20T11:45:52.885Z,25.70
2023-05-20T11:48:20.496Z,25.10
2023-05-20T11:50:48.692Z,24.80
2023-05-20T11:53:21.632Z,23.80
2023-05-20T11:55:55.055Z,22.30
2023-05-20T11:58:27.309Z,19.30
2023-05-20T12:01:01.860Z,19.70
2023-05-20T12:03:33.149Z,21.50
2023-05-20T12:06:04.170Z,21.60
2023-05-20T12:08:31.494Z,21.00
2023-05-20T12:10:58.829Z,20.80
2023-05-20T12:13:26.126Z,21.40
2023-05-20T12:15:53.645Z,21.90
2023-05-20T12:18:22.786Z,21.10
2023-05-20T12:20:50.098Z,20.20
2023-05-20T12:23:17.326Z,20.50
2023-05-20T12:25:47.383Z,22.50
2023-05-20T12:28:14.757Z,37.80
2023-05-20T12:30:42.227Z,21.40
2023-05-20T12:33:09.808Z,23.50
2023-05-20T12:35:41.946Z,24.90
2023-05-20T12:38:09.769Z,25.00
2023-05-20T12:40:38.057Z,26.70
2023-05-20T12:43:05.994Z,27.50
2023-05-20T12:45:33.673Z,28.50
2023-05-20T12:48:01.452Z,29.40
2023-05-20T12:50:29.038Z,26.50
2023-05-20T12:52:56.476Z,26.40
2023-05-20T12:55:24.046Z,25.50
2023-05-20T12:57:51.536Z,22.00
2023-05-20T13:00:18.863Z,20.70
2023-05-20T13:02:46.311Z,17.60
2023-05-20T13:05:13.880Z,14.30
2023-05-20T13:07:41.292Z,13.40
2023-05-20T13:10:10.593Z,11.70
2023-05-20T13:12:38.561Z,10.90
2023-05-20T13:15:06.622Z,9.50
2023-05-20T13:17:34.005Z,7.80
2023-05-20T13:20:01.390Z,7.70
2023-05-20T13:22:28.646Z,7.20
2023-05-20T13:24:55.949Z,7.50
2023-05-20T13:27:23.270Z,9.80
2023-05-20T13:29:50.727Z,5.30
2023-05-20T13:32:18.097Z,5.10
2023-05-20T13:34:45.461Z,8.40
2023-05-20T13:37:12.745Z,12.90
2023-05-20T13:39:39.995Z,12.60
2023-05-20T13:42:07.261Z,13.30
2023-05-20T13:44:34.584Z,13.90
2023-05-20T13:47:01.977Z,15.20
2023-05-20T13:49:29.209Z,15.90
2023-05-20T13:51:56.505Z,14.90
2023-05-20T13:54:23.830Z,17.10
2023-05-20T13:56:51.710Z,17.40
2023-05-20T13:59:19.139Z,16.00
2023-05-20T14:01:46.598Z,16.20
2023-05-20T14:04:13.991Z,14.90
2023-05-20T14:06:41.594Z,15.10
2023-05-20T14:09:09.401Z,13.10
2023-05-20T14:11:36.959Z,13.80
2023-05-20T14:14:04.390Z,14.10
2023-05-20T14:16:32.975Z,14.30
2023-05-20T14:19:00.475Z,13.70
2023-05-20T14:21:27.814Z,15.30
2023-05-20T14:23:55.191Z,14.50
2023-05-20T14:26:22.538Z,14.20
2023-05-20T14:28:50.236Z,14.70
2023-05-20T14:31:17.713Z,15.00
2023-05-20T14:33:44.998Z,19.80
2023-05-20T14:36:12.492Z,24.70
2023-05-20T14:38:39.753Z,42.00
2023-05-20T14:41:07.177Z,23.80
2023-05-20T14:43:34.542Z,22.30
2023-05-20T14:46:03.494Z,22.10
2023-05-20T14:48:30.966Z,21.50
2023-05-20T14:50:58.426Z,22.70
2023-05-20T14:53:25.846Z,22.60
2023-05-20T14:55:53.161Z,26.00
2023-05-20T14:58:20.485Z,24.90
2023-05-20T15:00:47.841Z,25.90
2023-05-20T15:03:15.254Z,22.90
2023-05-20T15:05:42.801Z,20.70
2023-05-20T15:08:10.124Z,20.40
2023-05-20T15:10:37.930Z,19.80
2023-05-20T15:13:05.521Z,18.40
2023-05-20T15:15:34.079Z,20.50
2023-05-20T15:18:02.018Z,18.70
2023-05-20T15:20:30.482Z,19.10
2023-05-20T15:23:00.811Z,17.70
2023-05-20T15:25:28.341Z,20.30
2023-05-20T15:27:55.898Z,21.20
2023-05-20T15:30:23.325Z,22.00
2023-05-20T15:32:50.697Z,24.20
2023-05-20T15:35:17.968Z,29.30
2023-05-20T15:37:45.455Z,32.50
2023-05-20T15:40:12.858Z,31.90
2023-05-20T15:42:40.110Z,29.60
2023-05-20T15:45:07.843Z,29.90
2023-05-20T15:47:35.205Z,30.00
2023-05-20T15:50:05.346Z,27.80
2023-05-20T15:52:32.700Z,29.00
2023-05-20T15:55:00.020Z,27.20
2023-05-20T15:57:27.351Z,25.70
2023-05-20T15:59:54.703Z,25.30
2023-05-20T16:02:22.132Z,28.70
2023-05-20T16:04:49.509Z,26.60
2023-05-20T16:07:17.002Z,25.80
2023-05-20T16:09:44.351Z,25.50
2023-05-20T16:12:12.403Z,26.30
2023-05-20T16:14:39.703Z,28.00
2023-05-20T16:17:07.022Z,28.00
2023-05-20T16:19:34.321Z,27.30
2023-05-20T16:22:01.629Z,26.30
2023-05-20T16:24:28.990Z,26.40
2023-05-20T16:26:56.461Z,26.20
2023-05-20T16:29:23.757Z,26.20
2023-05-20T16:31:51.091Z,25.90
2023-05-20T16:34:18.561Z,25.90
2023-05-20T16:36:46.462Z,26.00
2023-05-20T16:39:15.048Z,26.90
2023-05-20T16:41:43.179Z,27.50
2023-05-20T16:44:11.138Z,27.60
2023-05-20T16:46:38.515Z,29.90
2023-05-20T16:49:05.915Z,29.90
2023-05-20T16:51:33.231Z,33.30
2023-05-20T16:54:00.648Z,35.00
2023-05-20T16:56:28.491Z,33.60
2023-05-20T16:58:55.867Z,33.30
2023-05-20T17:01:23.982Z,44.50
2023-05-20T17:03:51.318Z,45.30
2023-05-20T17:06:18.613Z,46.20
2023-05-20T17:08:46.169Z,47.60
2023-05-20T17:11:13.443Z,47.00
2023-05-20T17:13:41.710Z,47.60
2023-05-20T17:16:09.985Z,52.00
2023-05-20T17:18:37.709Z,59.50
2023-05-20T17:21:05.128Z,69.60
2023-05-20T17:23:32.439Z,76.00
2023-05-20T17:25:59.779Z,81.20
2023-05-20T17:28:27.128Z,83.60
2023-05-20T17:30:54.489Z,87.60
2023-05-20T17:33:21.872Z,77.70
2023-05-20T17:35:49.228Z,51.60
2023-05-20T17:38:16.511Z,53.70
2023-05-20T17:40:43.881Z,55.20
2023-05-20T17:43:11.210Z,58.20
2023-05-20T17:45:38.504Z,55.50
2023-05-20T17:48:08.187Z,71.30
2023-05-20T17:50:37.621Z,67.40
2023-05-20T17:53:05.274Z,71.60
2023-05-20T17:55:36.162Z,91.50
2023-05-20T17:58:03.939Z,74.00
2023-05-20T18:00:34.677Z,69.00
2023-05-20T18:03:02.293Z,61.70
2023-05-20T18:05:29.782Z,67.10
2023-05-20T18:07:57.560Z,62.50
2023-05-20T18:10:24.798Z,54.20
2023-05-20T18:12:52.212Z,55.70
2023-05-20T18:15:19.607Z,52.80
2023-05-20T18:17:47.063Z,60.30
2023-05-20T18:20:14.771Z,62.60
2023-05-20T18:22:45.444Z,54.60
2023-05-20T18:25:16.075Z,55.60
2023-05-20T18:27:43.675Z,75.40
2023-05-20T18:30:11.144Z,58.30
2023-05-20T18:32:39.142Z,63.00
2023-05-20T18:35:07.057Z,66.20
2023-05-20T18:37:34.688Z,68.20
2023-05-20T18:40:02.581Z,71.60
2023-05-20T18:42:29.972Z,75.40
2023-05-20T18:44:57.274Z,57.10
2023-05-20T18:47:24.669Z,65.10
2023-05-20T18:49:52.003Z,70.90
2023-05-20T18:52:19.504Z,64.90
2023-05-20T18:55:06.052Z,65.80
2023-05-20T18:57:33.623Z,67.90
2023-05-20T19:00:02.488Z,76.10
2023-05-20T19:02:29.908Z,78.20
2023-05-20T19:04:57.336Z,76.10
2023-05-20T19:07:24.602Z,71.00
2023-05-20T19:09:52.156Z,82.70
2023-05-20T19:12:19.389Z,82.30
2023-05-20T19:14:46.744Z,78.60
2023-05-20T19:17:14.430Z,80.30
2023-05-20T19:19:41.716Z,79.80
2023-05-20T19:22:09.254Z,82.60
2023-05-20T19:24:36.597Z,91.20
2023-05-20T19:27:04.172Z,98.10
2023-05-20T19:29:31.465Z,99.90
2023-05-20T19:31:58.830Z,99.90
2023-05-20T19:34:26.295Z,92.90
2023-05-20T19:36:53.565Z,83.50
2023-05-20T19:39:21.616Z,86.30
2023-05-20T19:41:48.928Z,99.40
2023-05-20T19:44:16.201Z,99.90
2023-05-20T19:46:43.452Z,97.70
2023-05-20T19:49:11.097Z,90.50
2023-05-20T19:51:38.992Z,75.10
2023-05-20T19:54:06.341Z,66.40
2023-05-20T19:56:33.628Z,51.50
2023-05-20T19:59:01.771Z,40.10
2023-05-20T20:01:29.386Z,48.60
2023-05-20T20:03:56.753Z,55.10
2023-05-20T20:06:24.012Z,50.80
2023-05-20T20:08:51.375Z,52.00
2023-05-20T20:11:18.622Z,47.40
2023-05-20T20:13:46.004Z,43.40
2023-05-20T20:16:13.519Z,36.00
2023-05-20T20:18:41.561Z,35.00
2023-05-20T20:21:11.048Z,38.00
2023-05-20T20:23:38.397Z,38.30
2023-05-20T20:26:06.420Z,37.00
2023-05-20T20:28:33.973Z,39.70
2023-05-20T20:31:01.505Z,44.20
2023-05-20T20:33:28.711Z,42.50
2023-05-20T20:35:56.960Z,40.70
2023-05-20T20:38:24.287Z,44.00
2023-05-20T20:40:53.662Z,41.60
2023-05-20T20:43:22.952Z,44.30
2023-05-20T20:45:53.252Z,54.00
2023-05-20T20:48:26.801Z,56.20
2023-05-20T20:50:54.634Z,60.00
2023-05-20T20:53:22.332Z,70.40
2023-05-20T20:55:51.420Z,67.80
2023-05-20T20:58:19.099Z,63.80
2023-05-20T21:00:48.690Z,76.30
2023-05-20T21:03:16.328Z,84.00
2023-05-20T21:05:44.532Z,90.60
2023-05-20T21:08:13.297Z,94.10
2023-05-20T21:10:40.745Z,94.90
2023-05-20T21:13:08.142Z,99.80
2023-05-20T21:15:35.849Z,93.80
2023-05-20T21:18:03.639Z,98.70
2023-05-20T21:20:31.105Z,99.90
2023-05-20T21:22:58.379Z,99.90
2023-05-20T21:25:25.664Z,99.90
2023-05-20T21:27:53.023Z,99.90
2023-05-20T21:30:20.488Z,99.90
2023-05-20T21:32:47.753Z,99.90
2023-05-20T21:35:15.205Z,99.90
2023-05-20T21:37:42.537Z,99.90
2023-05-20T21:40:10.145Z,99.90
2023-05-20T21:42:37.896Z,99.90
2023-05-20T21:45:05.882Z,99.90
2023-05-20T21:47:33.149Z,99.90
2023-05-20T21:50:00.462Z,99.90
2023-05-20T21:52:27.706Z,99.90
2023-05-20T21:54:55.173Z,99.90
2023-05-20T21:57:22.543Z,99.90
2023-05-20T21:59:50.379Z,99.90
2023-05-20T22:02:17.845Z,99.90
2023-05-20T22:04:45.452Z,99.90
2023-05-20T22:07:12.787Z,99.90
2023-05-20T22:09:40.119Z,99.90
2023-05-20T22:12:07.897Z,99.90
2023-05-20T22:14:35.236Z,99.90
2023-05-20T22:17:03.256Z,99.90
2023-05-20T22:19:30.667Z,99.90
2023-05-20T22:21:58.117Z,99.90
2023-05-20T22:24:25.353Z,99.90
2023-05-20T22:26:52.697Z,99.90
2023-05-20T22:29:20.022Z,99.90
2023-05-20T22:31:47.369Z,99.90
2023-05-20T22:34:14.688Z,99.90
2023-05-20T22:36:41.942Z,99.90
2023-05-20T22:39:09.156Z,99.90
2023-05-20T22:41:36.701Z,99.90
2023-05-20T22:44:04.229Z,99.90
2023-05-20T22:46:32.291Z,99.90
2023-05-20T22:48:59.691Z,99.90
2023-05-20T22:51:26.949Z,99.90
2023-05-20T22:53:54.328Z,99.90
2023-05-20T22:56:21.597Z,99.90
2023-05-20T22:58:48.803Z,99.90
2023-05-20T23:01:16.989Z,99.90
2023-05-20T23:03:44.967Z,99.90
2023-05-20T23:06:12.791Z,99.90
2023-05-20T23:08:42.997Z,99.90
2023-05-20T23:11:10.739Z,99.90
2023-05-20T23:13:38.011Z,99.90
2023-05-20T23:16:06.190Z,99.90
2023-05-20T23:18:33.718Z,99.90
2023-05-20T23:21:01.238Z,99.90
2023-05-20T23:23:31.816Z,99.90
2023-05-20T23:26:01.711Z,99.90
2023-05-20T23:28:29.054Z,99.90
2023-05-20T23:30:56.671Z,99.90
2023-05-20T23:33:25.386Z,99.90
2023-05-20T23:35:53.487Z,99.90
2023-05-20T23:38:21.305Z,99.90
2023-05-20T23:40:49.333Z,99.90
2023-05-20T23:43:16.618Z,99.90
2023-05-20T23:45:43.924Z,99.90
2023-05-20T23:48:13.607Z,99.90
2023-05-20T23:50:41.108Z,99.90
2023-05-20T23:53:08.464Z,99.90
2023-05-20T23:55:36.070Z,99.90
2023-05-20T23:58:03.543Z,99.90
